Accueil
METAR-TAF:

METAR-TAF

Aéroports :

Aéroport de Figari Sud Corse

Figari, France

latitude: 41-30N, longitude: 009-06E, altitude: 26 m

Observation

Le bulletin a été fait il y a 44 minutes, à 16:30 UTC
Vent 8 kt de sud-ouest
Température 14°C
Humidité 55%
Pression 1016 hPa
Visibilité 10 km ou plus
pas de nuages en-dessous de 1500 mètres et pas de cumulonimbus.

METAR: LFKF 051630Z AUTO 23008KT CAVOK 14/05 Q1016 NOSIG

Heure: 18:14 (17:14 UTC)

Prévision

Le bulletin a été fait il y a 3 heures et 14 minutes, à 14:00 UTC
Prévision valable du 05 à 15 UTC au 06 à 15 UTC
Vent 10 kt de ouest/sud-ouest
Visibilité 10 km ou plus
Quelques nuages à une hauteur de 5000 ft
Evoluant progressivement
du 05 à 16 UTC au 05 à 18 UTC
Vent 8 kt de est/nord-est
Temporairement
du 06 à 12 UTC au 06 à 15 UTC
Quelques nuages à une hauteur de 3500 ft, Cumulus congestus.

TAF: LFKF 051400Z 0515/0615 25010KT 9999 FEW050 BECMG 0516/0518 06008KT TEMPO 0612/0615 FEW035TCU

Observations et prévisions météorologiques de plus de 4000 aéroports (messages METAR et TAF).

Les stations disponibles sont représentées par des disques jaunes et rouges sur la carte.

Passer la souris dessus pour voir le nom de la station.

Cliquer dessus pour voir les observations et prévisions météorologiques.

Pour changer de carte: cliquez sur les boutons verts avec une croix noire pour zoomer, sur le bouton vert avec un tiret pour effectuer un zoom arrière, ou sur les flèches vertes pour les cartes adjacentes.


METAR-TAF: